createdAt,value
2022-10-25T00:01:20.764Z,100556.69
2022-10-25T00:03:48.769Z,100552.97
2022-10-25T00:06:16.631Z,100547.16
2022-10-25T00:08:46.839Z,100548.19
2022-10-25T00:11:19.374Z,100556.13
2022-10-25T00:13:48.717Z,100560.88
2022-10-25T00:16:20.565Z,100555.75
2022-10-25T00:18:48.737Z,100549.25
2022-10-25T00:21:16.641Z,100552.75
2022-10-25T00:23:44.554Z,100557.88
2022-10-25T00:26:13.028Z,100556.59
2022-10-25T00:28:41.822Z,100552.19
2022-10-25T00:31:12.164Z,100556.72
2022-10-25T00:33:43.875Z,100555.28
2022-10-25T00:36:13.961Z,100555.13
2022-10-25T00:38:42.676Z,100565.97
2022-10-25T00:41:11.907Z,100566.91
2022-10-25T00:43:42.017Z,100564.91
2022-10-25T00:46:14.925Z,100570.91
2022-10-25T00:48:53.032Z,100569.59
2022-10-25T00:51:25.098Z,100580.09
2022-10-25T00:53:53.487Z,100577.81
2022-10-25T00:56:26.267Z,100572.59
2022-10-25T00:58:58.623Z,100581.34
2022-10-25T01:01:26.928Z,100587.56
2022-10-25T01:03:58.817Z,100579.53
2022-10-25T01:06:31.199Z,100584.22
2022-10-25T01:08:59.653Z,100586.94
2022-10-25T01:11:27.616Z,100591.63
2022-10-25T01:13:57.032Z,100583.44
2022-10-25T01:16:31.028Z,100589.22
2022-10-25T01:19:11.760Z,100596.78
2022-10-25T01:21:46.537Z,100584.38
2022-10-25T01:24:45.092Z,100580.16
2022-10-25T01:27:31.951Z,100585.56
2022-10-25T01:30:18.200Z,100588.59
2022-10-25T01:33:11.158Z,100583.25
2022-10-25T01:35:46.455Z,100583.13
2022-10-25T01:38:30.582Z,100598.06
2022-10-25T01:41:09.800Z,100582.13
2022-10-25T01:43:47.445Z,100590.59
2022-10-25T01:46:22.034Z,100582.59
2022-10-25T01:48:56.574Z,100578.91
2022-10-25T01:51:28.013Z,100592.09
2022-10-25T01:53:56.492Z,100591.84
2022-10-25T01:56:28.523Z,100583.19
2022-10-25T01:59:14.735Z,100596.19
2022-10-25T02:02:01.179Z,100591.88
2022-10-25T02:04:41.577Z,100598.78
2022-10-25T02:07:16.544Z,100596.91
2022-10-25T02:09:54.346Z,100605.31
2022-10-25T02:12:28.978Z,100598.88
2022-10-25T02:15:07.080Z,100592.81
2022-10-25T02:17:37.572Z,100589.31
2022-10-25T02:20:09.982Z,100585.91
2022-10-25T02:22:40.698Z,100587.56
2022-10-25T02:25:10.611Z,100584.03
2022-10-25T02:27:40.811Z,100592.97
2022-10-25T02:30:10.270Z,100601.16
2022-10-25T02:32:38.334Z,100594.38
2022-10-25T02:37:46.992Z,100589.19
2022-10-25T02:40:15.436Z,100590.09
2022-10-25T02:42:43.331Z,100594.03
2022-10-25T02:45:12.262Z,100591.63
2022-10-25T02:47:40.233Z,100594.59
2022-10-25T02:50:10.451Z,100599.47
2022-10-25T02:52:38.372Z,100598.84
2022-10-25T02:55:07.303Z,100593.28
2022-10-25T02:57:35.698Z,100596.56
2022-10-25T03:00:04.341Z,100602.59
2022-10-25T03:02:32.206Z,100603.47
2022-10-25T03:05:00.212Z,100603.41
2022-10-25T03:07:29.489Z,100603.97
2022-10-25T03:09:57.470Z,100609.22
2022-10-25T03:12:25.441Z,100610.16
2022-10-25T03:14:53.375Z,100613.00
2022-10-25T03:17:21.450Z,100611.28
2022-10-25T03:19:49.496Z,100614.59
2022-10-25T03:22:17.393Z,100611.34
2022-10-25T03:24:46.776Z,100620.09
2022-10-25T03:27:14.655Z,100622.09
2022-10-25T03:29:42.559Z,100621.16
2022-10-25T03:32:10.984Z,100624.53
2022-10-25T03:34:39.137Z,100624.34
2022-10-25T03:37:07.140Z,100626.53
2022-10-25T03:39:35.070Z,100623.03
2022-10-25T03:42:04.503Z,100623.38
2022-10-25T03:44:32.360Z,100629.75
2022-10-25T03:47:00.390Z,100633.19
2022-10-25T03:49:28.300Z,100636.50
2022-10-25T03:51:58.898Z,100632.91
2022-10-25T03:54:29.572Z,100639.16
2022-10-25T03:56:57.954Z,100643.47
2022-10-25T03:59:27.731Z,100643.22
2022-10-25T04:01:56.141Z,100641.03
2022-10-25T04:04:24.108Z,100637.97
2022-10-25T04:06:53.218Z,100642.84
2022-10-25T04:09:21.148Z,100651.44
2022-10-25T04:11:52.600Z,100638.94
2022-10-25T04:14:20.637Z,100650.91
2022-10-25T04:16:49.968Z,100655.00
2022-10-25T04:19:18.269Z,100652.84
2022-10-25T04:21:46.141Z,100650.09
2022-10-25T04:24:14.111Z,100653.13
2022-10-25T04:26:42.100Z,100650.81
2022-10-25T04:29:12.516Z,100657.94
2022-10-25T04:31:40.455Z,100658.91
2022-10-25T04:34:09.777Z,100659.81
2022-10-25T04:36:39.071Z,100658.56
2022-10-25T04:39:06.963Z,100661.72
2022-10-25T04:41:35.120Z,100661.00
2022-10-25T04:44:03.042Z,100662.16
2022-10-25T04:46:30.962Z,100669.25
2022-10-25T04:49:01.233Z,100666.59
2022-10-25T04:51:30.534Z,100667.41
2022-10-25T04:53:58.576Z,100670.59
2022-10-25T04:56:26.786Z,100671.22
2022-10-25T04:58:59.717Z,100671.63
2022-10-25T05:01:27.919Z,100673.88
2022-10-25T05:03:56.127Z,100682.06
2022-10-25T05:06:26.700Z,100680.44
2022-10-25T05:08:56.707Z,100675.31
2022-10-25T05:11:26.069Z,100681.56
2022-10-25T05:13:54.283Z,100677.88
2022-10-25T05:16:24.786Z,100679.69
2022-10-25T05:18:55.396Z,100678.16
2022-10-25T05:24:02.213Z,100688.69
2022-10-25T05:26:31.545Z,100692.63
2022-10-25T05:28:59.746Z,100695.78
2022-10-25T05:31:32.014Z,100698.69
2022-10-25T05:34:02.058Z,100695.38
2022-10-25T05:36:30.591Z,100703.78
2022-10-25T05:39:01.761Z,100712.53
2022-10-25T05:41:33.182Z,100703.91
2022-10-25T05:44:04.359Z,100698.25
2022-10-25T05:46:32.742Z,100705.75
2022-10-25T05:49:01.424Z,100716.88
2022-10-25T05:51:35.202Z,100712.78
2022-10-25T05:54:07.066Z,100705.69
2022-10-25T05:56:36.076Z,100717.72
2022-10-25T05:59:07.634Z,100720.50
2022-10-25T06:01:36.848Z,100720.69
2022-10-25T06:04:05.134Z,100733.78
2022-10-25T06:06:33.018Z,100725.38
2022-10-25T06:09:02.360Z,100730.53
2022-10-25T06:11:32.208Z,100741.31
2022-10-25T06:14:00.406Z,100733.91
2022-10-25T06:16:28.689Z,100744.09
2022-10-25T06:18:56.719Z,100744.31
2022-10-25T06:21:26.661Z,100743.41
2022-10-25T06:23:55.425Z,100735.97
2022-10-25T06:26:25.102Z,100740.91
2022-10-25T06:28:56.359Z,100756.09
2022-10-25T06:31:24.766Z,100742.91
2022-10-25T06:33:52.969Z,100754.41
2022-10-25T06:36:22.918Z,100766.22
2022-10-25T06:38:51.863Z,100762.41
2022-10-25T06:41:21.747Z,100767.66
2022-10-25T06:43:50.262Z,100767.53
2022-10-25T06:46:26.185Z,100774.44
2022-10-25T06:48:56.107Z,100770.59
2022-10-25T06:51:25.122Z,100769.00
2022-10-25T06:53:55.362Z,100779.75
2022-10-25T06:56:23.470Z,100789.97
2022-10-25T06:58:51.677Z,100783.69
2022-10-25T07:01:22.513Z,100796.06
2022-10-25T07:03:53.549Z,100802.34
2022-10-25T07:06:24.243Z,100806.59
2022-10-25T07:08:55.863Z,100811.25
2022-10-25T07:11:25.006Z,100802.69
2022-10-25T07:13:52.922Z,100803.59
2022-10-25T07:16:22.222Z,100809.03
2022-10-25T07:18:50.443Z,100811.59
2022-10-25T07:21:21.220Z,100808.13
2022-10-25T07:23:50.127Z,100809.72
2022-10-25T07:26:20.254Z,100810.78
2022-10-25T07:28:49.918Z,100823.38
2022-10-25T07:31:20.011Z,100829.69
2022-10-25T07:33:49.702Z,100832.34
2022-10-25T07:36:17.623Z,100834.00
2022-10-25T07:38:45.813Z,100840.31
2022-10-25T07:41:14.240Z,100844.44
2022-10-25T07:43:42.194Z,100842.19
2022-10-25T07:46:10.074Z,100841.59
2022-10-25T07:48:38.288Z,100840.25
2022-10-25T07:51:09.228Z,100850.13
2022-10-25T07:53:37.101Z,100854.66
2022-10-25T07:56:05.836Z,100852.06
2022-10-25T07:58:33.837Z,100847.97
2022-10-25T08:01:03.196Z,100853.75
2022-10-25T08:03:34.989Z,100856.34
2022-10-25T08:06:04.005Z,100854.75
2022-10-25T08:08:33.924Z,100847.69
2022-10-25T08:11:08.085Z,100855.91
2022-10-25T08:13:36.743Z,100860.22
2022-10-25T08:16:05.721Z,100868.59
2022-10-25T08:18:34.554Z,100864.91
2022-10-25T08:21:04.071Z,100873.47
2022-10-25T08:23:34.136Z,100882.94
2022-10-25T08:26:02.518Z,100881.06
2022-10-25T08:28:31.749Z,100878.81
2022-10-25T08:31:01.261Z,100882.88
2022-10-25T08:33:29.574Z,100879.66
2022-10-25T08:36:00.165Z,100877.41
2022-10-25T08:38:28.101Z,100881.31
2022-10-25T08:41:04.405Z,100883.31
2022-10-25T08:43:55.411Z,100885.28
2022-10-25T08:46:27.245Z,100894.81
2022-10-25T08:49:03.733Z,100887.66
2022-10-25T08:51:36.996Z,100895.31
2022-10-25T08:54:11.887Z,100895.50
2022-10-25T08:56:51.240Z,100902.88
2022-10-25T08:59:31.399Z,100915.78
2022-10-25T09:02:01.079Z,100912.75
2022-10-25T09:04:31.743Z,100910.53
2022-10-25T09:07:12.568Z,100914.78
2022-10-25T09:09:47.852Z,100924.72
2022-10-25T09:12:24.277Z,100923.00
2022-10-25T09:14:59.112Z,100915.59
2022-10-25T09:17:40.065Z,100915.22
2022-10-25T09:20:16.351Z,100917.88
2022-10-25T09:22:47.648Z,100920.59
2022-10-25T09:25:22.971Z,100924.91
2022-10-25T09:28:00.534Z,100926.50
2022-10-25T09:30:31.186Z,100929.66
2022-10-25T09:33:02.482Z,100929.88
2022-10-25T09:35:41.750Z,100938.09
2022-10-25T09:38:15.422Z,100942.91
2022-10-25T09:40:47.918Z,100941.97
2022-10-25T09:43:21.331Z,100934.16
2022-10-25T09:45:52.556Z,100939.72
2022-10-25T09:48:27.015Z,100943.00
2022-10-25T09:50:58.894Z,100946.97
2022-10-25T09:53:27.371Z,100947.19
2022-10-25T09:55:57.161Z,100954.63
2022-10-25T09:58:28.613Z,100956.91
2022-10-25T10:01:00.067Z,100960.91
2022-10-25T10:03:31.483Z,100962.28
2022-10-25T10:06:03.195Z,100957.16
2022-10-25T10:08:34.749Z,100964.41
2022-10-25T10:11:04.865Z,100967.69
2022-10-25T10:13:39.998Z,100965.13
2022-10-25T10:16:20.711Z,100971.28
2022-10-25T10:18:49.197Z,100966.66
2022-10-25T10:21:19.721Z,100964.59
2022-10-25T10:23:54.294Z,100971.63
2022-10-25T10:26:27.894Z,100960.38
2022-10-25T10:29:09.344Z,100973.13
2022-10-25T10:31:39.085Z,100979.47
2022-10-25T10:34:23.356Z,100983.56
2022-10-25T10:37:03.251Z,100986.31
2022-10-25T10:39:31.146Z,100995.38
2022-10-25T10:42:04.208Z,100984.16
2022-10-25T10:44:34.893Z,100974.66
2022-10-25T10:47:10.955Z,100989.78
2022-10-25T10:49:43.301Z,100985.09
2022-10-25T10:52:29.240Z,100991.41
2022-10-25T10:54:58.367Z,100989.53
2022-10-25T10:57:30.947Z,100990.06
2022-10-25T11:00:01.592Z,100993.03
2022-10-25T11:02:39.055Z,100983.56
2022-10-25T11:05:21.194Z,100980.44
2022-10-25T11:07:56.207Z,100986.63
2022-10-25T11:10:27.600Z,100987.63
2022-10-25T11:13:15.231Z,100990.72
2022-10-25T11:16:21.975Z,100994.78
2022-10-25T11:19:13.928Z,100993.25
2022-10-25T11:21:54.907Z,101002.91
2022-10-25T11:24:32.885Z,101007.53
2022-10-25T11:27:11.739Z,101004.38
2022-10-25T11:29:54.268Z,101009.47
2022-10-25T11:32:43.748Z,101006.09
2022-10-25T11:35:28.039Z,101008.78
2022-10-25T11:38:04.030Z,101015.09
2022-10-25T11:40:36.373Z,101016.72
2022-10-25T11:43:17.599Z,101014.94
2022-10-25T11:45:46.986Z,101014.69
2022-10-25T11:48:31.665Z,101015.78
2022-10-25T11:51:10.775Z,101018.53
2022-10-25T11:53:59.547Z,101019.09
2022-10-25T11:56:37.512Z,101014.78
2022-10-25T11:59:16.056Z,101022.53
2022-10-25T12:01:58.523Z,101016.16
2022-10-25T12:04:49.186Z,101024.75
2022-10-25T12:07:23.587Z,101022.75
2022-10-25T12:10:04.789Z,101024.09
2022-10-25T12:12:41.995Z,101024.31
2022-10-25T12:15:17.707Z,101019.06
2022-10-25T12:17:46.161Z,101017.91
2022-10-25T12:20:23.808Z,101027.41
2022-10-25T12:22:54.626Z,101024.72
2022-10-25T12:25:27.857Z,101028.72
2022-10-25T12:28:04.575Z,101028.34
2022-10-25T12:30:35.504Z,101031.97
2022-10-25T12:33:13.078Z,101041.22
2022-10-25T12:35:49.299Z,101032.19
2022-10-25T12:38:22.030Z,101043.91
2022-10-25T12:40:52.234Z,101029.06
2022-10-25T12:43:40.053Z,101029.28
2022-10-25T12:46:23.118Z,101032.25
2022-10-25T12:49:16.052Z,101023.66
2022-10-25T12:52:01.192Z,101015.13
2022-10-25T12:54:45.271Z,101022.94
2022-10-25T12:57:23.293Z,101033.09
2022-10-25T13:00:02.791Z,101039.66
2022-10-25T13:03:01.681Z,101032.84
2022-10-25T13:05:46.480Z,101036.28
2022-10-25T13:08:18.178Z,101026.44
2022-10-25T13:10:51.347Z,101025.69
2022-10-25T13:13:23.561Z,101030.84
2022-10-25T13:15:54.393Z,101024.63
2022-10-25T13:18:40.155Z,101030.56
2022-10-25T13:21:10.926Z,101027.00
2022-10-25T13:24:03.859Z,101028.63
2022-10-25T13:26:34.350Z,101022.88
2022-10-25T13:29:04.896Z,101031.97
2022-10-25T13:31:58.429Z,101029.19
2022-10-25T13:34:36.978Z,101038.50
2022-10-25T13:37:44.059Z,101041.03
2022-10-25T13:40:31.927Z,101037.06
2022-10-25T13:43:05.760Z,101044.97
2022-10-25T13:45:39.437Z,101044.88
2022-10-25T13:48:18.018Z,101035.41
2022-10-25T13:50:48.254Z,101041.25
2022-10-25T13:53:23.415Z,101045.81
2022-10-25T13:56:03.639Z,101040.22
2022-10-25T13:58:49.993Z,101040.03
2022-10-25T14:02:00.276Z,101042.31
2022-10-25T14:04:37.838Z,101048.81
2022-10-25T14:07:44.294Z,101052.72
2022-10-25T14:10:25.245Z,101059.19
2022-10-25T14:13:01.225Z,101048.38
2022-10-25T14:15:40.958Z,101050.34
2022-10-25T14:18:13.038Z,101045.28
2022-10-25T14:20:41.214Z,101049.28
2022-10-25T14:23:16.849Z,101048.22
2022-10-25T14:25:52.039Z,101048.41
2022-10-25T14:28:27.044Z,101050.16
2022-10-25T14:30:57.693Z,101046.59
2022-10-25T14:33:28.718Z,101049.03
2022-10-25T14:35:59.100Z,101056.72
2022-10-25T14:38:29.110Z,101048.97
2022-10-25T14:40:58.661Z,101043.03
2022-10-25T14:43:30.501Z,101043.41
2022-10-25T14:46:01.237Z,101042.50
2022-10-25T14:48:29.718Z,101046.28
2022-10-25T14:51:00.453Z,101056.81
2022-10-25T14:53:29.638Z,101055.34
2022-10-25T14:56:01.131Z,101056.09
2022-10-25T14:58:38.364Z,101058.63
2022-10-25T15:01:06.661Z,101058.38
2022-10-25T15:03:42.126Z,101054.66
2022-10-25T15:06:10.585Z,101063.84
2022-10-25T15:08:41.121Z,101058.78
2022-10-25T15:11:19.437Z,101058.28
2022-10-25T15:13:51.918Z,101060.06
2022-10-25T15:16:34.401Z,101059.44
2022-10-25T15:19:20.412Z,101054.56
2022-10-25T15:21:50.201Z,101050.56
2022-10-25T15:24:20.855Z,101053.09
2022-10-25T15:26:56.210Z,101060.00
2022-10-25T15:29:45.896Z,101052.25
2022-10-25T15:32:16.510Z,101056.00
2022-10-25T15:34:46.843Z,101050.50
2022-10-25T15:37:17.876Z,101050.63
2022-10-25T15:39:47.678Z,101054.38
2022-10-25T15:42:16.065Z,101056.72
2022-10-25T15:44:46.020Z,101043.44
2022-10-25T15:47:30.469Z,101059.13
2022-10-25T15:49:59.053Z,101062.34
2022-10-25T15:52:27.547Z,101059.34
2022-10-25T15:54:55.616Z,101054.44
2022-10-25T15:57:23.528Z,101056.63
2022-10-25T15:59:52.782Z,101050.97
2022-10-25T16:02:22.840Z,101066.97
2022-10-25T16:04:50.840Z,101066.53
2022-10-25T16:07:18.691Z,101064.44
2022-10-25T16:09:46.864Z,101069.03
2022-10-25T16:12:20.564Z,101066.16
2022-10-25T16:14:50.184Z,101073.38
2022-10-25T16:17:19.586Z,101068.47
2022-10-25T16:19:47.502Z,101072.88
2022-10-25T16:22:15.616Z,101079.00
2022-10-25T16:24:43.524Z,101079.34
2022-10-25T16:27:12.914Z,101084.81
2022-10-25T16:29:41.327Z,101082.44
2022-10-25T16:32:09.549Z,101084.19
2022-10-25T16:34:42.443Z,101090.63
2022-10-25T16:37:11.876Z,101094.25
2022-10-25T16:39:40.104Z,101095.91
2022-10-25T16:42:27.429Z,101096.44
2022-10-25T16:44:56.321Z,101087.34
2022-10-25T16:47:24.782Z,101086.97
2022-10-25T16:49:54.602Z,101092.69
2022-10-25T16:52:22.969Z,101093.44
2022-10-25T16:54:50.924Z,101100.78
2022-10-25T16:57:18.893Z,101101.38
2022-10-25T16:59:49.042Z,101102.13
2022-10-25T17:02:20.166Z,101092.38
2022-10-25T17:04:49.602Z,101092.75
2022-10-25T17:07:19.319Z,101099.81
2022-10-25T17:09:47.444Z,101096.09
2022-10-25T17:12:15.874Z,101095.78
2022-10-25T17:14:43.856Z,101097.66
2022-10-25T17:17:11.885Z,101092.28
2022-10-25T17:19:39.863Z,101095.78
2022-10-25T17:22:08.353Z,101094.75
2022-10-25T17:24:37.735Z,101100.44
2022-10-25T17:27:06.309Z,101098.63
2022-10-25T17:29:34.339Z,101103.56
2022-10-25T17:32:02.203Z,101096.28
2022-10-25T17:34:32.133Z,101090.50
2022-10-25T17:37:02.157Z,101100.56
2022-10-25T17:39:30.546Z,101103.28
2022-10-25T17:41:59.950Z,101107.53
2022-10-25T17:44:28.064Z,101109.50
2022-10-25T17:46:58.312Z,101104.56
2022-10-25T17:49:28.995Z,101098.38
2022-10-25T17:51:56.924Z,101111.31
2022-10-25T17:54:24.842Z,101115.81
2022-10-25T17:56:56.479Z,101111.22
2022-10-25T17:59:27.706Z,101113.50
2022-10-25T18:01:55.943Z,101123.56
2022-10-25T18:04:24.557Z,101111.59
2022-10-25T18:06:52.892Z,101112.31
2022-10-25T18:09:21.024Z,101115.94
2022-10-25T18:11:49.088Z,101115.94
2022-10-25T18:14:17.095Z,101118.53
2022-10-25T18:16:46.994Z,101127.63
2022-10-25T18:19:15.745Z,101136.28
2022-10-25T18:21:43.702Z,101132.13
2022-10-25T18:24:13.998Z,101132.13
2022-10-25T18:26:41.994Z,101126.88
2022-10-25T18:29:10.997Z,101129.09
2022-10-25T18:31:38.945Z,101127.50
2022-10-25T18:34:08.286Z,101135.66
2022-10-25T18:36:36.240Z,101125.47
2022-10-25T18:39:06.249Z,101128.44
2022-10-25T18:41:35.607Z,101127.66
2022-10-25T18:44:03.955Z,101122.72
2022-10-25T18:46:32.782Z,101123.25
2022-10-25T18:49:00.898Z,101129.59
2022-10-25T18:51:31.917Z,101128.72
2022-10-25T18:54:01.953Z,101129.59
2022-10-25T18:56:31.878Z,101128.41
2022-10-25T18:59:00.052Z,101129.09
2022-10-25T19:01:32.815Z,101132.22
2022-10-25T19:04:02.247Z,101134.47
2022-10-25T19:06:33.273Z,101130.38
2022-10-25T19:09:03.486Z,101129.44
2022-10-25T19:11:33.964Z,101124.69
2022-10-25T19:14:03.988Z,101129.44
2022-10-25T19:16:40.087Z,101126.22
2022-10-25T19:19:08.792Z,101125.72
2022-10-25T19:21:38.080Z,101130.25
2022-10-25T19:24:06.766Z,101128.50
2022-10-25T19:26:34.703Z,101130.50
2022-10-25T19:29:02.858Z,101124.53
2022-10-25T19:31:31.078Z,101124.94
2022-10-25T19:34:02.877Z,101131.00
2022-10-25T19:36:31.122Z,101126.38
2022-10-25T19:39:01.450Z,101127.22
2022-10-25T19:41:29.716Z,101133.34
2022-10-25T19:43:59.047Z,101129.31
2022-10-25T19:46:27.087Z,101130.97
2022-10-25T19:48:56.291Z,101128.81
2022-10-25T19:51:24.390Z,101131.09
2022-10-25T19:53:52.581Z,101130.72
2022-10-25T19:56:24.078Z,101126.06
2022-10-25T19:58:52.561Z,101131.44
2022-10-25T20:01:23.286Z,101125.72
2022-10-25T20:03:54.596Z,101128.75
2022-10-25T20:06:25.090Z,101121.25
2022-10-25T20:08:53.548Z,101128.41
2022-10-25T20:11:24.087Z,101125.25
2022-10-25T20:13:54.010Z,101124.47
2022-10-25T20:16:22.168Z,101133.66
2022-10-25T20:18:50.176Z,101135.34
2022-10-25T20:21:21.951Z,101132.22
2022-10-25T20:23:55.401Z,101126.84
2022-10-25T20:26:27.395Z,101131.28
2022-10-25T20:28:56.598Z,101123.38
2022-10-25T20:31:25.335Z,101128.69
2022-10-25T20:33:54.227Z,101127.63
2022-10-25T20:36:22.582Z,101126.59
2022-10-25T20:38:50.802Z,101128.03
2022-10-25T20:41:21.134Z,101129.78
2022-10-25T20:43:52.099Z,101127.00
2022-10-25T20:46:21.053Z,101137.75
2022-10-25T20:48:49.061Z,101136.66
2022-10-25T20:51:17.836Z,101139.50
2022-10-25T20:53:46.730Z,101143.63
2022-10-25T20:56:14.895Z,101150.56
2022-10-25T20:58:43.471Z,101149.91
2022-10-25T21:01:13.959Z,101144.31
2022-10-25T21:03:42.285Z,101148.66
2022-10-25T21:06:12.725Z,101150.91
2022-10-25T21:08:41.534Z,101150.66
2022-10-25T21:11:12.605Z,101146.13
2022-10-25T21:13:40.720Z,101150.84
2022-10-25T21:16:09.781Z,101148.31
2022-10-25T21:18:39.127Z,101148.44
2022-10-25T21:21:08.695Z,101152.84
2022-10-25T21:23:36.768Z,101149.44
2022-10-25T21:26:06.768Z,101146.53
2022-10-25T21:28:36.734Z,101157.13
2022-10-25T21:31:05.591Z,101159.00
2022-10-25T21:33:34.055Z,101151.44
2022-10-25T21:36:12.668Z,101149.09
2022-10-25T21:38:41.606Z,101144.22
2022-10-25T21:41:11.586Z,101139.94
2022-10-25T21:43:43.648Z,101144.72
2022-10-25T21:46:12.364Z,101145.94
2022-10-25T21:48:40.474Z,101143.28
2022-10-25T21:51:09.800Z,101136.97
2022-10-25T21:53:37.697Z,101141.53
2022-10-25T21:56:11.709Z,101148.16
2022-10-25T21:58:40.258Z,101143.84
2022-10-25T22:01:09.515Z,101140.63
2022-10-25T22:03:37.589Z,101135.34
2022-10-25T22:06:07.081Z,101136.84
2022-10-25T22:08:36.514Z,101141.25
2022-10-25T22:11:07.380Z,101139.81
2022-10-25T22:13:35.461Z,101144.25
2022-10-25T22:16:05.900Z,101143.84
2022-10-25T22:18:34.777Z,101142.34
2022-10-25T22:21:04.312Z,101143.41
2022-10-25T22:23:32.700Z,101139.13
2022-10-25T22:26:03.533Z,101145.66
2022-10-25T22:28:33.328Z,101139.22
2022-10-25T22:31:05.993Z,101138.28
2022-10-25T22:33:34.589Z,101139.53
2022-10-25T22:38:32.820Z,101121.78
2022-10-25T22:41:04.697Z,101130.84
2022-10-25T22:43:34.767Z,101122.53
2022-10-25T22:46:03.709Z,101128.31
2022-10-25T22:48:31.962Z,101121.38
2022-10-25T22:51:00.245Z,101124.63
2022-10-25T22:53:29.051Z,101125.69
2022-10-25T22:55:58.279Z,101129.19
2022-10-25T22:58:28.963Z,101115.22
2022-10-25T23:01:06.042Z,101122.84
2022-10-25T23:03:34.605Z,101119.69
2022-10-25T23:06:03.487Z,101116.06
2022-10-25T23:08:32.162Z,101124.47
2022-10-25T23:11:01.879Z,101118.25
2022-10-25T23:13:32.955Z,101119.06
2022-10-25T23:16:01.485Z,101125.22
2022-10-25T23:18:29.521Z,101126.06
2022-10-25T23:20:58.670Z,101123.69
2022-10-25T23:23:27.353Z,101122.03
2022-10-25T23:25:55.995Z,101128.25
2022-10-25T23:28:24.033Z,101123.47
2022-10-25T23:30:53.517Z,101126.38
2022-10-25T23:33:21.663Z,101121.03
2022-10-25T23:35:50.140Z,101121.22
2022-10-25T23:38:18.127Z,101127.44
2022-10-25T23:40:47.854Z,101128.25
2022-10-25T23:43:15.962Z,101131.47
2022-10-25T23:45:43.989Z,101129.31
2022-10-25T23:48:13.436Z,101138.03
2022-10-25T23:50:41.638Z,101124.22
2022-10-25T23:53:09.925Z,101126.34
2022-10-25T23:55:38.742Z,101130.34
2022-10-25T23:58:07.034Z,101127.31
